sensor_id;sensor_type;location;lat;lon;timestamp;P1;durP1;ratioP1;P2;durP2;ratioP2
18102;SDS011;9178;51.120;6.192;2022-09-04T00:01:48;3.60;;;3.30;;
18102;SDS011;9178;51.120;6.192;2022-09-04T00:04:24;3.60;;;3.00;;
18102;SDS011;9178;51.120;6.192;2022-09-04T00:07:01;4.73;;;3.30;;
18102;SDS011;9178;51.120;6.192;2022-09-04T00:09:38;3.00;;;2.80;;
18102;SDS011;9178;51.120;6.192;2022-09-04T00:12:14;3.87;;;2.70;;
18102;SDS011;9178;51.120;6.192;2022-09-04T00:14:48;3.57;;;3.23;;
18102;SDS011;9178;51.120;6.192;2022-09-04T00:17:21;3.83;;;3.43;;
18102;SDS011;9178;51.120;6.192;2022-09-04T00:19:52;4.80;;;3.07;;
18102;SDS011;9178;51.120;6.192;2022-09-04T00:22:26;4.43;;;3.50;;
18102;SDS011;9178;51.120;6.192;2022-09-04T00:24:57;3.50;;;3.20;;
18102;SDS011;9178;51.120;6.192;2022-09-04T00:27:34;3.83;;;3.47;;
18102;SDS011;9178;51.120;6.192;2022-09-04T00:30:09;3.80;;;3.50;;
18102;SDS011;9178;51.120;6.192;2022-09-04T00:32:40;2.87;;;2.67;;
18102;SDS011;9178;51.120;6.192;2022-09-04T00:35:13;3.63;;;3.20;;
18102;SDS011;9178;51.120;6.192;2022-09-04T00:37:44;3.30;;;3.00;;
18102;SDS011;9178;51.120;6.192;2022-09-04T00:40:19;3.77;;;3.30;;
18102;SDS011;9178;51.120;6.192;2022-09-04T00:43:00;3.30;;;3.00;;
18102;SDS011;9178;51.120;6.192;2022-09-04T00:45:47;3.30;;;3.00;;
18102;SDS011;9178;51.120;6.192;2022-09-04T00:51:15;3.27;;;2.97;;
18102;SDS011;9178;51.120;6.192;2022-09-04T00:53:59;3.90;;;3.03;;
18102;SDS011;9178;51.120;6.192;2022-09-04T00:59:40;4.03;;;3.30;;
18102;SDS011;9178;51.120;6.192;2022-09-04T01:02:22;4.27;;;3.53;;
18102;SDS011;9178;51.120;6.192;2022-09-04T01:04:56;3.80;;;2.80;;
18102;SDS011;9178;51.120;6.192;2022-09-04T01:07:36;3.13;;;2.60;;
18102;SDS011;9178;51.120;6.192;2022-09-04T01:10:24;5.47;;;3.07;;
18102;SDS011;9178;51.120;6.192;2022-09-04T01:13:02;3.70;;;3.20;;
18102;SDS011;9178;51.120;6.192;2022-09-04T01:15:36;3.50;;;3.13;;
18102;SDS011;9178;51.120;6.192;2022-09-04T01:18:09;4.00;;;3.53;;
18102;SDS011;9178;51.120;6.192;2022-09-04T01:26:52;4.17;;;3.40;;
18102;SDS011;9178;51.120;6.192;2022-09-04T01:29:27;3.07;;;2.80;;
18102;SDS011;9178;51.120;6.192;2022-09-04T01:32:11;3.70;;;3.27;;
18102;SDS011;9178;51.120;6.192;2022-09-04T01:34:49;4.63;;;3.40;;
18102;SDS011;9178;51.120;6.192;2022-09-04T01:37:28;4.40;;;3.77;;
18102;SDS011;9178;51.120;6.192;2022-09-04T01:40:20;4.83;;;3.47;;
18102;SDS011;9178;51.120;6.192;2022-09-04T01:42:56;3.73;;;3.10;;
18102;SDS011;9178;51.120;6.192;2022-09-04T01:45:28;4.10;;;3.30;;
18102;SDS011;9178;51.120;6.192;2022-09-04T01:48:07;4.10;;;3.67;;
18102;SDS011;9178;51.120;6.192;2022-09-04T01:50:38;5.83;;;4.30;;
18102;SDS011;9178;51.120;6.192;2022-09-04T01:53:16;4.30;;;3.90;;
18102;SDS011;9178;51.120;6.192;2022-09-04T01:55:50;4.07;;;3.60;;
18102;SDS011;9178;51.120;6.192;2022-09-04T01:58:27;4.30;;;3.90;;
18102;SDS011;9178;51.120;6.192;2022-09-04T02:01:04;4.17;;;3.77;;
18102;SDS011;9178;51.120;6.192;2022-09-04T02:03:40;4.80;;;4.40;;
18102;SDS011;9178;51.120;6.192;2022-09-04T02:06:15;4.53;;;4.13;;
18102;SDS011;9178;51.120;6.192;2022-09-04T02:08:56;6.70;;;4.13;;
18102;SDS011;9178;51.120;6.192;2022-09-04T02:11:35;4.50;;;4.10;;
18102;SDS011;9178;51.120;6.192;2022-09-04T02:17:01;4.00;;;3.70;;
18102;SDS011;9178;51.120;6.192;2022-09-04T02:19:36;4.57;;;3.50;;
18102;SDS011;9178;51.120;6.192;2022-09-04T02:22:19;5.30;;;4.30;;
18102;SDS011;9178;51.120;6.192;2022-09-04T02:24:53;3.77;;;3.43;;
18102;SDS011;9178;51.120;6.192;2022-09-04T02:27:28;4.83;;;3.73;;
18102;SDS011;9178;51.120;6.192;2022-09-04T02:30:06;4.67;;;3.63;;
18102;SDS011;9178;51.120;6.192;2022-09-04T02:32:35;5.53;;;4.10;;
18102;SDS011;9178;51.120;6.192;2022-09-04T02:35:07;5.67;;;3.80;;
18102;SDS011;9178;51.120;6.192;2022-09-04T02:37:42;4.90;;;4.30;;
18102;SDS011;9178;51.120;6.192;2022-09-04T02:40:21;4.53;;;3.80;;
18102;SDS011;9178;51.120;6.192;2022-09-04T02:42:58;3.87;;;3.57;;
18102;SDS011;9178;51.120;6.192;2022-09-04T02:45:39;4.20;;;3.80;;
18102;SDS011;9178;51.120;6.192;2022-09-04T02:48:11;3.97;;;3.57;;
18102;SDS011;9178;51.120;6.192;2022-09-04T02:50:58;3.77;;;3.40;;
18102;SDS011;9178;51.120;6.192;2022-09-04T02:53:40;5.17;;;3.70;;
18102;SDS011;9178;51.120;6.192;2022-09-04T02:56:19;4.43;;;4.03;;
18102;SDS011;9178;51.120;6.192;2022-09-04T02:58:55;4.40;;;3.70;;
18102;SDS011;9178;51.120;6.192;2022-09-04T03:01:38;3.77;;;3.47;;
18102;SDS011;9178;51.120;6.192;2022-09-04T03:04:11;4.00;;;3.50;;
18102;SDS011;9178;51.120;6.192;2022-09-04T03:06:46;4.47;;;3.47;;
18102;SDS011;9178;51.120;6.192;2022-09-04T03:09:17;3.43;;;3.13;;
18102;SDS011;9178;51.120;6.192;2022-09-04T03:11:51;3.77;;;3.47;;
18102;SDS011;9178;51.120;6.192;2022-09-04T03:14:27;6.10;;;4.27;;
18102;SDS011;9178;51.120;6.192;2022-09-04T03:17:02;4.13;;;3.50;;
18102;SDS011;9178;51.120;6.192;2022-09-04T03:19:37;4.27;;;3.87;;
18102;SDS011;9178;51.120;6.192;2022-09-04T03:22:14;7.17;;;3.80;;
18102;SDS011;9178;51.120;6.192;2022-09-04T03:24:56;4.00;;;3.60;;
18102;SDS011;9178;51.120;6.192;2022-09-04T03:27:34;5.00;;;3.50;;
18102;SDS011;9178;51.120;6.192;2022-09-04T03:30:03;4.67;;;3.40;;
18102;SDS011;9178;51.120;6.192;2022-09-04T03:32:36;4.17;;;3.37;;
18102;SDS011;9178;51.120;6.192;2022-09-04T03:35:13;3.67;;;3.37;;
18102;SDS011;9178;51.120;6.192;2022-09-04T03:37:57;3.50;;;3.10;;
18102;SDS011;9178;51.120;6.192;2022-09-04T03:40:37;3.40;;;3.10;;
18102;SDS011;9178;51.120;6.192;2022-09-04T03:43:26;4.37;;;3.80;;
18102;SDS011;9178;51.120;6.192;2022-09-04T03:46:14;4.03;;;3.67;;
18102;SDS011;9178;51.120;6.192;2022-09-04T03:49:06;3.30;;;3.10;;
18102;SDS011;9178;51.120;6.192;2022-09-04T03:51:42;5.63;;;3.43;;
18102;SDS011;9178;51.120;6.192;2022-09-04T03:54:23;3.70;;;3.40;;
18102;SDS011;9178;51.120;6.192;2022-09-04T03:57:02;3.33;;;3.10;;
18102;SDS011;9178;51.120;6.192;2022-09-04T03:59:52;3.30;;;3.00;;
18102;SDS011;9178;51.120;6.192;2022-09-04T04:02:28;4.53;;;3.00;;
18102;SDS011;9178;51.120;6.192;2022-09-04T04:08:09;4.07;;;3.30;;
18102;SDS011;9178;51.120;6.192;2022-09-04T04:10:54;3.40;;;3.10;;
18102;SDS011;9178;51.120;6.192;2022-09-04T04:13:41;5.07;;;3.27;;
18102;SDS011;9178;51.120;6.192;2022-09-04T04:16:26;3.37;;;3.07;;
18102;SDS011;9178;51.120;6.192;2022-09-04T04:19:11;3.47;;;2.73;;
18102;SDS011;9178;51.120;6.192;2022-09-04T04:21:53;3.20;;;2.90;;
18102;SDS011;9178;51.120;6.192;2022-09-04T04:24:39;2.97;;;2.77;;
18102;SDS011;9178;51.120;6.192;2022-09-04T04:27:27;2.93;;;2.73;;
18102;SDS011;9178;51.120;6.192;2022-09-04T04:30:05;2.90;;;2.70;;
18102;SDS011;9178;51.120;6.192;2022-09-04T04:35:32;3.67;;;2.83;;
18102;SDS011;9178;51.120;6.192;2022-09-04T04:38:13;3.87;;;3.00;;
18102;SDS011;9178;51.120;6.192;2022-09-04T04:40:53;3.17;;;2.80;;
18102;SDS011;9178;51.120;6.192;2022-09-04T04:43:30;3.53;;;3.23;;
18102;SDS011;9178;51.120;6.192;2022-09-04T04:46:06;6.53;;;3.50;;
18102;SDS011;9178;51.120;6.192;2022-09-04T04:52:00;4.67;;;3.23;;
18102;SDS011;9178;51.120;6.192;2022-09-04T04:54:39;5.47;;;3.30;;
18102;SDS011;9178;51.120;6.192;2022-09-04T04:57:12;4.97;;;3.20;;
18102;SDS011;9178;51.120;6.192;2022-09-04T04:59:54;3.93;;;2.80;;
18102;SDS011;9178;51.120;6.192;2022-09-04T05:02:33;3.80;;;3.50;;
18102;SDS011;9178;51.120;6.192;2022-09-04T05:05:08;3.93;;;3.47;;
18102;SDS011;9178;51.120;6.192;2022-09-04T05:07:41;5.00;;;3.77;;
18102;SDS011;9178;51.120;6.192;2022-09-04T05:10:19;5.30;;;3.50;;
18102;SDS011;9178;51.120;6.192;2022-09-04T05:12:54;4.60;;;3.33;;
18102;SDS011;9178;51.120;6.192;2022-09-04T05:15:28;3.97;;;2.83;;
18102;SDS011;9178;51.120;6.192;2022-09-04T05:18:03;4.87;;;3.33;;
18102;SDS011;9178;51.120;6.192;2022-09-04T05:20:38;3.27;;;3.07;;
18102;SDS011;9178;51.120;6.192;2022-09-04T05:23:14;4.97;;;2.93;;
18102;SDS011;9178;51.120;6.192;2022-09-04T05:25:49;3.27;;;2.87;;
18102;SDS011;9178;51.120;6.192;2022-09-04T05:28:27;3.23;;;2.90;;
18102;SDS011;9178;51.120;6.192;2022-09-04T05:31:06;3.70;;;2.73;;
18102;SDS011;9178;51.120;6.192;2022-09-04T05:33:40;2.73;;;2.53;;
18102;SDS011;9178;51.120;6.192;2022-09-04T05:36:17;6.10;;;2.97;;
18102;SDS011;9178;51.120;6.192;2022-09-04T05:38:54;3.40;;;3.10;;
18102;SDS011;9178;51.120;6.192;2022-09-04T05:41:45;2.80;;;2.57;;
18102;SDS011;9178;51.120;6.192;2022-09-04T05:44:31;4.50;;;3.23;;
18102;SDS011;9178;51.120;6.192;2022-09-04T05:47:07;3.47;;;3.17;;
18102;SDS011;9178;51.120;6.192;2022-09-04T05:49:45;3.77;;;3.13;;
18102;SDS011;9178;51.120;6.192;2022-09-04T05:52:29;3.87;;;3.20;;
18102;SDS011;9178;51.120;6.192;2022-09-04T05:55:19;3.80;;;3.40;;
18102;SDS011;9178;51.120;6.192;2022-09-04T05:58:13;2.93;;;2.73;;
18102;SDS011;9178;51.120;6.192;2022-09-04T06:01:06;3.77;;;3.37;;
18102;SDS011;9178;51.120;6.192;2022-09-04T06:06:40;3.83;;;2.67;;
18102;SDS011;9178;51.120;6.192;2022-09-04T06:09:22;2.93;;;2.73;;
18102;SDS011;9178;51.120;6.192;2022-09-04T06:12:12;2.77;;;2.57;;
18102;SDS011;9178;51.120;6.192;2022-09-04T06:15:05;3.07;;;2.27;;
18102;SDS011;9178;51.120;6.192;2022-09-04T06:17:51;4.70;;;2.93;;
18102;SDS011;9178;51.120;6.192;2022-09-04T06:20:33;2.63;;;2.43;;
18102;SDS011;9178;51.120;6.192;2022-09-04T06:23:16;2.53;;;2.33;;
18102;SDS011;9178;51.120;6.192;2022-09-04T06:31:40;3.13;;;2.20;;
18102;SDS011;9178;51.120;6.192;2022-09-04T06:34:24;2.57;;;2.40;;
18102;SDS011;9178;51.120;6.192;2022-09-04T06:37:03;1.87;;;1.77;;
18102;SDS011;9178;51.120;6.192;2022-09-04T06:39:42;2.37;;;2.03;;
18102;SDS011;9178;51.120;6.192;2022-09-04T06:42:20;2.13;;;2.00;;
18102;SDS011;9178;51.120;6.192;2022-09-04T06:45:02;3.53;;;1.87;;
18102;SDS011;9178;51.120;6.192;2022-09-04T06:47:54;3.20;;;1.80;;
18102;SDS011;9178;51.120;6.192;2022-09-04T06:50:30;2.40;;;1.97;;
18102;SDS011;9178;51.120;6.192;2022-09-04T06:53:06;2.33;;;1.73;;
18102;SDS011;9178;51.120;6.192;2022-09-04T06:55:46;2.63;;;1.70;;
18102;SDS011;9178;51.120;6.192;2022-09-04T06:58:35;1.70;;;1.60;;
18102;SDS011;9178;51.120;6.192;2022-09-04T07:01:15;2.00;;;1.80;;
18102;SDS011;9178;51.120;6.192;2022-09-04T07:03:55;5.03;;;1.95;;
18102;SDS011;9178;51.120;6.192;2022-09-04T07:06:41;2.13;;;1.70;;
18102;SDS011;9178;51.120;6.192;2022-09-04T07:09:19;3.33;;;1.95;;
18102;SDS011;9178;51.120;6.192;2022-09-04T07:12:12;3.70;;;1.35;;
18102;SDS011;9178;51.120;6.192;2022-09-04T07:18:03;3.53;;;1.70;;
18102;SDS011;9178;51.120;6.192;2022-09-04T07:20:42;1.80;;;1.70;;
18102;SDS011;9178;51.120;6.192;2022-09-04T07:23:20;2.25;;;1.40;;
18102;SDS011;9178;51.120;6.192;2022-09-04T07:26:00;1.50;;;1.40;;
18102;SDS011;9178;51.120;6.192;2022-09-04T07:31:44;3.00;;;1.20;;
18102;SDS011;9178;51.120;6.192;2022-09-04T07:34:15;2.60;;;1.30;;
18102;SDS011;9178;51.120;6.192;2022-09-04T07:36:50;1.67;;;1.20;;
18102;SDS011;9178;51.120;6.192;2022-09-04T07:39:24;3.22;;;1.40;;
18102;SDS011;9178;51.120;6.192;2022-09-04T07:41:59;2.08;;;1.48;;
18102;SDS011;9178;51.120;6.192;2022-09-04T07:44:35;1.33;;;1.23;;
18102;SDS011;9178;51.120;6.192;2022-09-04T07:47:16;1.70;;;1.10;;
18102;SDS011;9178;51.120;6.192;2022-09-04T07:49:51;2.03;;;1.05;;
18102;SDS011;9178;51.120;6.192;2022-09-04T07:52:28;0.98;;;0.95;;
18102;SDS011;9178;51.120;6.192;2022-09-04T07:55:09;1.25;;;1.10;;
18102;SDS011;9178;51.120;6.192;2022-09-04T07:57:50;1.25;;;1.15;;
18102;SDS011;9178;51.120;6.192;2022-09-04T08:00:28;1.40;;;1.30;;
18102;SDS011;9178;51.120;6.192;2022-09-04T08:03:02;2.00;;;1.20;;
18102;SDS011;9178;51.120;6.192;2022-09-04T08:05:46;2.22;;;1.30;;
18102;SDS011;9178;51.120;6.192;2022-09-04T08:08:49;2.13;;;1.35;;
18102;SDS011;9178;51.120;6.192;2022-09-04T08:11:37;1.60;;;1.50;;
18102;SDS011;9178;51.120;6.192;2022-09-04T08:14:19;1.65;;;1.55;;
18102;SDS011;9178;51.120;6.192;2022-09-04T08:16:52;1.35;;;1.20;;
18102;SDS011;9178;51.120;6.192;2022-09-04T08:19:49;1.85;;;1.30;;
18102;SDS011;9178;51.120;6.192;2022-09-04T08:22:26;1.90;;;1.50;;
18102;SDS011;9178;51.120;6.192;2022-09-04T08:25:08;2.20;;;1.92;;
18102;SDS011;9178;51.120;6.192;2022-09-04T08:27:53;3.50;;;1.80;;
18102;SDS011;9178;51.120;6.192;2022-09-04T08:30:37;2.50;;;1.50;;
18102;SDS011;9178;51.120;6.192;2022-09-04T08:33:15;1.60;;;1.35;;
18102;SDS011;9178;51.120;6.192;2022-09-04T08:36:11;4.22;;;1.52;;
18102;SDS011;9178;51.120;6.192;2022-09-04T08:38:51;2.17;;;1.50;;
18102;SDS011;9178;51.120;6.192;2022-09-04T08:56:34;3.70;;;1.40;;
18102;SDS011;9178;51.120;6.192;2022-09-04T08:59:22;2.28;;;1.77;;
18102;SDS011;9178;51.120;6.192;2022-09-04T09:02:18;3.63;;;2.15;;
18102;SDS011;9178;51.120;6.192;2022-09-04T09:11:43;1.50;;;1.40;;
18102;SDS011;9178;51.120;6.192;2022-09-04T09:14:43;1.30;;;1.17;;
18102;SDS011;9178;51.120;6.192;2022-09-04T09:17:34;2.28;;;1.27;;
18102;SDS011;9178;51.120;6.192;2022-09-04T09:23:13;1.50;;;1.23;;
18102;SDS011;9178;51.120;6.192;2022-09-04T09:25:48;1.05;;;1.05;;
18102;SDS011;9178;51.120;6.192;2022-09-04T09:40:46;1.75;;;1.10;;
18102;SDS011;9178;51.120;6.192;2022-09-04T09:43:57;1.10;;;1.10;;
18102;SDS011;9178;51.120;6.192;2022-09-04T09:52:59;2.65;;;0.98;;
18102;SDS011;9178;51.120;6.192;2022-09-04T09:56:14;1.98;;;1.17;;
18102;SDS011;9178;51.120;6.192;2022-09-04T09:59:23;1.20;;;0.95;;
18102;SDS011;9178;51.120;6.192;2022-09-04T10:05:29;1.48;;;1.20;;
18102;SDS011;9178;51.120;6.192;2022-09-04T10:08:19;1.38;;;1.15;;
18102;SDS011;9178;51.120;6.192;2022-09-04T10:14:15;1.90;;;1.00;;
18102;SDS011;9178;51.120;6.192;2022-09-04T10:17:12;2.55;;;0.90;;
18102;SDS011;9178;51.120;6.192;2022-09-04T10:20:00;0.88;;;0.88;;
18102;SDS011;9178;51.120;6.192;2022-09-04T10:25:52;1.77;;;1.52;;
18102;SDS011;9178;51.120;6.192;2022-09-04T10:28:47;1.33;;;1.00;;
18102;SDS011;9178;51.120;6.192;2022-09-04T10:31:42;1.38;;;0.95;;
18102;SDS011;9178;51.120;6.192;2022-09-04T10:37:32;1.20;;;1.10;;
18102;SDS011;9178;51.120;6.192;2022-09-04T10:40:17;1.35;;;1.08;;
18102;SDS011;9178;51.120;6.192;2022-09-04T10:43:04;3.10;;;1.15;;
18102;SDS011;9178;51.120;6.192;2022-09-04T10:46:05;1.15;;;0.93;;
18102;SDS011;9178;51.120;6.192;2022-09-04T10:48:39;2.47;;;1.02;;
18102;SDS011;9178;51.120;6.192;2022-09-04T11:00:53;1.27;;;1.10;;
18102;SDS011;9178;51.120;6.192;2022-09-04T11:03:51;1.15;;;0.90;;
18102;SDS011;9178;51.120;6.192;2022-09-04T11:09:42;1.08;;;0.95;;
18102;SDS011;9178;51.120;6.192;2022-09-04T11:15:40;3.53;;;1.20;;
18102;SDS011;9178;51.120;6.192;2022-09-04T11:25:09;1.00;;;0.95;;
18102;SDS011;9178;51.120;6.192;2022-09-04T11:37:37;3.50;;;1.35;;
18102;SDS011;9178;51.120;6.192;2022-09-04T11:46:30;1.50;;;1.40;;
18102;SDS011;9178;51.120;6.192;2022-09-04T11:49:19;1.50;;;1.40;;
18102;SDS011;9178;51.120;6.192;2022-09-04T11:52:20;3.35;;;1.40;;
18102;SDS011;9178;51.120;6.192;2022-09-04T11:57:58;1.92;;;1.27;;
18102;SDS011;9178;51.120;6.192;2022-09-04T12:00:50;4.18;;;1.92;;
18102;SDS011;9178;51.120;6.192;2022-09-04T12:06:36;2.67;;;1.25;;
18102;SDS011;9178;51.120;6.192;2022-09-04T12:09:29;5.72;;;1.40;;
18102;SDS011;9178;51.120;6.192;2022-09-04T12:12:31;1.88;;;1.38;;
18102;SDS011;9178;51.120;6.192;2022-09-04T12:15:12;2.10;;;1.08;;
18102;SDS011;9178;51.120;6.192;2022-09-04T12:18:08;2.45;;;1.35;;
18102;SDS011;9178;51.120;6.192;2022-09-04T12:30:02;1.67;;;1.05;;
18102;SDS011;9178;51.120;6.192;2022-09-04T12:32:42;1.40;;;1.30;;
18102;SDS011;9178;51.120;6.192;2022-09-04T12:38:47;2.78;;;1.48;;
18102;SDS011;9178;51.120;6.192;2022-09-04T12:41:31;2.45;;;1.50;;
18102;SDS011;9178;51.120;6.192;2022-09-04T12:44:07;2.53;;;1.23;;
18102;SDS011;9178;51.120;6.192;2022-09-04T12:46:47;1.45;;;1.35;;
18102;SDS011;9178;51.120;6.192;2022-09-04T12:49:31;2.47;;;1.42;;
18102;SDS011;9178;51.120;6.192;2022-09-04T12:52:16;3.72;;;1.38;;
18102;SDS011;9178;51.120;6.192;2022-09-04T12:54:52;1.70;;;1.30;;
18102;SDS011;9178;51.120;6.192;2022-09-04T12:57:30;1.50;;;1.30;;
18102;SDS011;9178;51.120;6.192;2022-09-04T13:00:06;1.40;;;1.30;;
18102;SDS011;9178;51.120;6.192;2022-09-04T13:02:40;3.67;;;1.30;;
18102;SDS011;9178;51.120;6.192;2022-09-04T13:05:21;1.40;;;1.30;;
18102;SDS011;9178;51.120;6.192;2022-09-04T13:07:58;1.30;;;1.13;;
18102;SDS011;9178;51.120;6.192;2022-09-04T13:10:35;1.05;;;1.00;;
18102;SDS011;9178;51.120;6.192;2022-09-04T13:13:11;2.08;;;1.00;;
18102;SDS011;9178;51.120;6.192;2022-09-04T13:15:51;2.35;;;1.38;;
18102;SDS011;9178;51.120;6.192;2022-09-04T13:18:30;1.90;;;1.13;;
18102;SDS011;9178;51.120;6.192;2022-09-04T13:21:12;1.73;;;1.00;;
18102;SDS011;9178;51.120;6.192;2022-09-04T13:23:53;1.30;;;1.20;;
18102;SDS011;9178;51.120;6.192;2022-09-04T13:26:46;1.17;;;1.08;;
18102;SDS011;9178;51.120;6.192;2022-09-04T13:29:28;1.77;;;1.10;;
18102;SDS011;9178;51.120;6.192;2022-09-04T13:32:10;2.42;;;1.13;;
18102;SDS011;9178;51.120;6.192;2022-09-04T13:35:01;1.42;;;1.00;;
18102;SDS011;9178;51.120;6.192;2022-09-04T13:37:36;3.72;;;1.10;;
18102;SDS011;9178;51.120;6.192;2022-09-04T13:40:19;1.75;;;0.98;;
18102;SDS011;9178;51.120;6.192;2022-09-04T13:43:06;1.70;;;0.98;;
18102;SDS011;9178;51.120;6.192;2022-09-04T13:45:55;1.35;;;0.75;;
18102;SDS011;9178;51.120;6.192;2022-09-04T13:48:32;2.45;;;1.02;;
18102;SDS011;9178;51.120;6.192;2022-09-04T13:51:07;2.80;;;0.93;;
18102;SDS011;9178;51.120;6.192;2022-09-04T13:53:40;0.98;;;0.90;;
18102;SDS011;9178;51.120;6.192;2022-09-04T13:56:21;1.25;;;1.15;;
18102;SDS011;9178;51.120;6.192;2022-09-04T13:58:55;1.33;;;1.00;;
18102;SDS011;9178;51.120;6.192;2022-09-04T14:01:32;4.55;;;0.98;;
18102;SDS011;9178;51.120;6.192;2022-09-04T14:04:11;1.80;;;0.82;;
18102;SDS011;9178;51.120;6.192;2022-09-04T14:06:41;1.30;;;0.90;;
18102;SDS011;9178;51.120;6.192;2022-09-04T14:09:09;0.98;;;0.80;;
18102;SDS011;9178;51.120;6.192;2022-09-04T14:11:40;1.05;;;0.90;;
18102;SDS011;9178;51.120;6.192;2022-09-04T14:14:36;0.90;;;0.90;;
18102;SDS011;9178;51.120;6.192;2022-09-04T14:17:32;1.80;;;0.98;;
18102;SDS011;9178;51.120;6.192;2022-09-04T14:20:11;1.10;;;1.10;;
18102;SDS011;9178;51.120;6.192;2022-09-04T14:22:43;0.82;;;0.82;;
18102;SDS011;9178;51.120;6.192;2022-09-04T14:25:17;1.25;;;1.15;;
18102;SDS011;9178;51.120;6.192;2022-09-04T14:27:50;9.18;;;1.38;;
18102;SDS011;9178;51.120;6.192;2022-09-04T14:30:22;3.47;;;1.08;;
18102;SDS011;9178;51.120;6.192;2022-09-04T14:32:53;10.18;;;1.38;;
18102;SDS011;9178;51.120;6.192;2022-09-04T14:35:34;1.27;;;0.77;;
18102;SDS011;9178;51.120;6.192;2022-09-04T14:38:19;1.25;;;1.17;;
18102;SDS011;9178;51.120;6.192;2022-09-04T14:41:09;0.98;;;0.98;;
18102;SDS011;9178;51.120;6.192;2022-09-04T14:43:46;0.88;;;0.70;;
18102;SDS011;9178;51.120;6.192;2022-09-04T14:46:30;1.10;;;1.00;;
18102;SDS011;9178;51.120;6.192;2022-09-04T14:49:03;1.40;;;1.15;;
18102;SDS011;9178;51.120;6.192;2022-09-04T14:51:34;1.42;;;0.70;;
18102;SDS011;9178;51.120;6.192;2022-09-04T14:54:04;0.80;;;0.80;;
18102;SDS011;9178;51.120;6.192;2022-09-04T14:56:36;0.70;;;0.70;;
18102;SDS011;9178;51.120;6.192;2022-09-04T14:59:10;3.78;;;1.00;;
18102;SDS011;9178;51.120;6.192;2022-09-04T15:01:54;2.40;;;0.90;;
18102;SDS011;9178;51.120;6.192;2022-09-04T15:04:27;1.35;;;0.80;;
18102;SDS011;9178;51.120;6.192;2022-09-04T15:07:02;0.95;;;0.65;;
18102;SDS011;9178;51.120;6.192;2022-09-04T15:09:48;0.70;;;0.70;;
18102;SDS011;9178;51.120;6.192;2022-09-04T15:12:19;0.73;;;0.70;;
18102;SDS011;9178;51.120;6.192;2022-09-04T15:14:50;1.00;;;0.90;;
18102;SDS011;9178;51.120;6.192;2022-09-04T15:17:22;1.00;;;0.88;;
18102;SDS011;9178;51.120;6.192;2022-09-04T15:19:52;0.95;;;0.65;;
18102;SDS011;9178;51.120;6.192;2022-09-04T15:22:25;0.82;;;0.80;;
18102;SDS011;9178;51.120;6.192;2022-09-04T15:25:02;0.68;;;0.68;;
18102;SDS011;9178;51.120;6.192;2022-09-04T15:27:34;0.75;;;0.75;;
18102;SDS011;9178;51.120;6.192;2022-09-04T15:30:14;1.83;;;0.70;;
18102;SDS011;9178;51.120;6.192;2022-09-04T15:32:44;1.25;;;0.80;;
18102;SDS011;9178;51.120;6.192;2022-09-04T15:35:13;1.02;;;0.80;;
18102;SDS011;9178;51.120;6.192;2022-09-04T15:37:43;3.60;;;0.88;;
18102;SDS011;9178;51.120;6.192;2022-09-04T15:40:13;1.67;;;0.73;;
18102;SDS011;9178;51.120;6.192;2022-09-04T15:42:52;0.85;;;0.70;;
18102;SDS011;9178;51.120;6.192;2022-09-04T15:45:26;1.30;;;0.80;;
18102;SDS011;9178;51.120;6.192;2022-09-04T15:48:06;0.80;;;0.47;;
18102;SDS011;9178;51.120;6.192;2022-09-04T15:50:49;1.85;;;0.80;;
18102;SDS011;9178;51.120;6.192;2022-09-04T15:53:31;1.17;;;0.60;;
18102;SDS011;9178;51.120;6.192;2022-09-04T15:56:03;0.93;;;0.70;;
18102;SDS011;9178;51.120;6.192;2022-09-04T15:58:40;1.05;;;0.82;;
18102;SDS011;9178;51.120;6.192;2022-09-04T16:01:13;0.82;;;0.80;;
18102;SDS011;9178;51.120;6.192;2022-09-04T16:03:49;0.98;;;0.80;;
18102;SDS011;9178;51.120;6.192;2022-09-04T16:06:26;0.75;;;0.65;;
18102;SDS011;9178;51.120;6.192;2022-09-04T16:08:59;2.50;;;0.90;;
18102;SDS011;9178;51.120;6.192;2022-09-04T16:11:30;1.45;;;0.80;;
18102;SDS011;9178;51.120;6.192;2022-09-04T16:14:01;1.08;;;0.70;;
18102;SDS011;9178;51.120;6.192;2022-09-04T16:16:32;1.35;;;0.75;;
18102;SDS011;9178;51.120;6.192;2022-09-04T16:21:58;0.80;;;0.80;;
18102;SDS011;9178;51.120;6.192;2022-09-04T16:24:33;0.80;;;0.80;;
18102;SDS011;9178;51.120;6.192;2022-09-04T16:27:05;1.10;;;1.00;;
18102;SDS011;9178;51.120;6.192;2022-09-04T16:29:35;0.93;;;0.65;;
18102;SDS011;9178;51.120;6.192;2022-09-04T16:32:07;0.82;;;0.82;;
18102;SDS011;9178;51.120;6.192;2022-09-04T16:34:37;1.17;;;0.77;;
18102;SDS011;9178;51.120;6.192;2022-09-04T16:37:10;1.23;;;0.82;;
18102;SDS011;9178;51.120;6.192;2022-09-04T16:39:45;0.75;;;0.73;;
18102;SDS011;9178;51.120;6.192;2022-09-04T16:42:22;0.80;;;0.80;;
18102;SDS011;9178;51.120;6.192;2022-09-04T16:44:54;0.60;;;0.60;;
18102;SDS011;9178;51.120;6.192;2022-09-04T16:47:29;0.80;;;0.80;;
18102;SDS011;9178;51.120;6.192;2022-09-04T16:50:01;1.05;;;0.80;;
18102;SDS011;9178;51.120;6.192;2022-09-04T16:52:43;1.60;;;0.77;;
18102;SDS011;9178;51.120;6.192;2022-09-04T16:55:22;0.77;;;0.77;;
18102;SDS011;9178;51.120;6.192;2022-09-04T16:58:01;0.88;;;0.80;;
18102;SDS011;9178;51.120;6.192;2022-09-04T17:00:45;1.20;;;0.70;;
18102;SDS011;9178;51.120;6.192;2022-09-04T17:03:19;2.13;;;1.00;;
18102;SDS011;9178;51.120;6.192;2022-09-04T17:05:48;1.13;;;0.90;;
18102;SDS011;9178;51.120;6.192;2022-09-04T17:08:23;1.42;;;0.77;;
18102;SDS011;9178;51.120;6.192;2022-09-04T17:10:58;1.67;;;0.70;;
18102;SDS011;9178;51.120;6.192;2022-09-04T17:13:35;1.60;;;0.77;;
18102;SDS011;9178;51.120;6.192;2022-09-04T17:16:11;0.80;;;0.80;;
18102;SDS011;9178;51.120;6.192;2022-09-04T17:18:43;0.90;;;0.90;;
18102;SDS011;9178;51.120;6.192;2022-09-04T17:21:14;2.13;;;0.77;;
18102;SDS011;9178;51.120;6.192;2022-09-04T17:24:00;1.15;;;1.05;;
18102;SDS011;9178;51.120;6.192;2022-09-04T17:26:34;1.40;;;0.80;;
18102;SDS011;9178;51.120;6.192;2022-09-04T17:29:04;1.13;;;0.90;;
18102;SDS011;9178;51.120;6.192;2022-09-04T17:31:35;1.42;;;0.80;;
18102;SDS011;9178;51.120;6.192;2022-09-04T17:34:10;1.10;;;0.90;;
18102;SDS011;9178;51.120;6.192;2022-09-04T17:36:44;0.73;;;0.73;;
18102;SDS011;9178;51.120;6.192;2022-09-04T17:39:15;0.80;;;0.75;;
18102;SDS011;9178;51.120;6.192;2022-09-04T17:41:50;2.55;;;0.95;;
18102;SDS011;9178;51.120;6.192;2022-09-04T17:44:24;0.63;;;0.57;;
18102;SDS011;9178;51.120;6.192;2022-09-04T17:47:00;0.82;;;0.80;;
18102;SDS011;9178;51.120;6.192;2022-09-04T17:49:43;1.42;;;0.90;;
18102;SDS011;9178;51.120;6.192;2022-09-04T17:52:19;0.70;;;0.70;;
18102;SDS011;9178;51.120;6.192;2022-09-04T17:54:48;0.80;;;0.80;;
18102;SDS011;9178;51.120;6.192;2022-09-04T17:57:20;1.52;;;0.70;;
18102;SDS011;9178;51.120;6.192;2022-09-04T17:59:53;1.00;;;1.00;;
18102;SDS011;9178;51.120;6.192;2022-09-04T18:02:28;1.70;;;1.02;;
18102;SDS011;9178;51.120;6.192;2022-09-04T18:05:07;1.30;;;1.00;;
18102;SDS011;9178;51.120;6.192;2022-09-04T18:07:40;1.38;;;0.95;;
18102;SDS011;9178;51.120;6.192;2022-09-04T18:10:15;1.98;;;1.10;;
18102;SDS011;9178;51.120;6.192;2022-09-04T18:12:57;0.70;;;0.70;;
18102;SDS011;9178;51.120;6.192;2022-09-04T18:15:33;1.45;;;1.23;;
18102;SDS011;9178;51.120;6.192;2022-09-04T18:18:08;1.50;;;1.10;;
18102;SDS011;9178;51.120;6.192;2022-09-04T18:20:39;26.88;;;2.08;;
18102;SDS011;9178;51.120;6.192;2022-09-04T18:23:16;8.05;;;1.30;;
18102;SDS011;9178;51.120;6.192;2022-09-04T18:25:52;5.82;;;1.02;;
18102;SDS011;9178;51.120;6.192;2022-09-04T18:28:25;3.78;;;1.15;;
18102;SDS011;9178;51.120;6.192;2022-09-04T18:31:01;6.28;;;1.33;;
18102;SDS011;9178;51.120;6.192;2022-09-04T18:33:35;1.13;;;1.02;;
18102;SDS011;9178;51.120;6.192;2022-09-04T18:36:09;1.40;;;0.90;;
18102;SDS011;9178;51.120;6.192;2022-09-04T18:38:43;1.02;;;0.90;;
18102;SDS011;9178;51.120;6.192;2022-09-04T18:41:25;0.90;;;0.90;;
18102;SDS011;9178;51.120;6.192;2022-09-04T18:43:59;2.08;;;1.15;;
18102;SDS011;9178;51.120;6.192;2022-09-04T18:46:31;3.90;;;1.30;;
18102;SDS011;9178;51.120;6.192;2022-09-04T18:49:00;2.58;;;0.90;;